createdAt,value
2023-03-12T00:00:56.176Z,4.20
2023-03-12T00:06:26.384Z,3.88
2023-03-12T00:11:55.628Z,4.15
2023-03-12T00:14:40.333Z,3.65
2023-03-12T00:20:11.607Z,3.45
2023-03-12T00:22:56.358Z,3.92
2023-03-12T00:25:41.409Z,3.22
2023-03-12T00:28:26.475Z,3.95
2023-03-12T00:31:21.109Z,4.07
2023-03-12T00:34:05.767Z,3.92
2023-03-12T00:36:50.628Z,3.75
2023-03-12T00:39:36.092Z,4.28
2023-03-12T00:42:21.195Z,4.25
2023-03-12T00:45:06.464Z,4.63
2023-03-12T00:47:51.700Z,3.78
2023-03-12T00:53:21.156Z,3.20
2023-03-12T00:58:51.819Z,2.83
2023-03-12T01:01:36.818Z,2.95
2023-03-12T01:04:21.944Z,3.00
2023-03-12T01:09:51.621Z,2.63
2023-03-12T01:12:36.748Z,2.92
2023-03-12T01:18:06.270Z,4.72
2023-03-12T01:20:51.105Z,4.57
2023-03-12T01:23:37.401Z,3.42
2023-03-12T01:26:22.643Z,3.55
2023-03-12T01:29:07.588Z,3.20
2023-03-12T01:34:37.959Z,2.53
2023-03-12T01:37:22.763Z,2.60
2023-03-12T01:40:15.781Z,3.10
2023-03-12T01:43:26.594Z,2.65
2023-03-12T01:46:18.944Z,2.47
2023-03-12T01:49:13.932Z,2.92
2023-03-12T01:51:59.327Z,3.22
2023-03-12T01:54:57.779Z,3.40
2023-03-12T01:57:54.524Z,3.53
2023-03-12T02:00:39.275Z,3.72
2023-03-12T02:03:24.306Z,3.83
2023-03-12T02:09:01.577Z,3.38
2023-03-12T02:11:47.269Z,3.83
2023-03-12T02:14:32.678Z,3.60
2023-03-12T02:17:17.825Z,2.97
2023-03-12T02:23:09.543Z,1.92
2023-03-12T02:25:55.943Z,2.53
2023-03-12T02:28:43.483Z,3.10
2023-03-12T02:31:35.154Z,4.03
2023-03-12T02:34:20.868Z,2.70
2023-03-12T02:37:06.148Z,2.13
2023-03-12T02:40:18.321Z,1.90
2023-03-12T02:43:07.016Z,2.28
2023-03-12T02:45:52.372Z,2.70
2023-03-12T02:48:37.351Z,2.88
2023-03-12T02:54:08.147Z,2.03
2023-03-12T02:56:53.112Z,2.40
2023-03-12T02:59:37.801Z,2.67
2023-03-12T03:02:24.808Z,2.95
2023-03-12T03:05:11.466Z,3.22
2023-03-12T03:07:57.106Z,3.28
2023-03-12T03:10:41.740Z,2.47
2023-03-12T03:13:26.801Z,2.28
2023-03-12T03:16:12.853Z,2.25
2023-03-12T03:18:58.175Z,2.50
2023-03-12T03:21:43.253Z,2.20
2023-03-12T03:24:28.197Z,2.78
2023-03-12T03:27:14.059Z,2.30
2023-03-12T03:29:58.960Z,1.80
2023-03-12T03:35:30.440Z,1.75
2023-03-12T03:41:00.506Z,2.45
2023-03-12T03:43:46.107Z,2.22
2023-03-12T03:46:31.918Z,2.53
2023-03-12T03:49:21.000Z,2.60
2023-03-12T03:52:09.861Z,2.47
2023-03-12T03:54:56.336Z,2.50
2023-03-12T03:57:41.277Z,2.53
2023-03-12T04:00:26.661Z,2.67
2023-03-12T04:03:13.374Z,2.63
2023-03-12T04:05:59.925Z,2.03
2023-03-12T04:08:44.575Z,1.42
2023-03-12T04:11:32.887Z,2.08
2023-03-12T04:14:18.863Z,1.48
2023-03-12T04:17:03.987Z,1.67
2023-03-12T04:19:49.180Z,1.25
2023-03-12T04:25:19.154Z,1.38
2023-03-12T04:28:04.936Z,0.93
2023-03-12T04:31:01.820Z,1.27
2023-03-12T04:33:53.196Z,1.27
2023-03-12T04:36:40.793Z,1.35
2023-03-12T04:39:25.737Z,1.55
2023-03-12T04:42:11.451Z,2.10
2023-03-12T04:44:58.255Z,2.33
2023-03-12T04:50:28.683Z,1.85
2023-03-12T04:53:14.360Z,2.20
2023-03-12T04:58:45.990Z,1.70
2023-03-12T05:01:33.348Z,2.35
2023-03-12T05:04:21.244Z,1.52
2023-03-12T05:07:07.629Z,1.70
2023-03-12T05:09:52.567Z,2.03
2023-03-12T05:12:37.515Z,1.50
2023-03-12T05:15:23.447Z,1.85
2023-03-12T05:18:08.524Z,1.77
2023-03-12T05:21:01.616Z,1.70
2023-03-12T05:23:47.139Z,1.58
2023-03-12T05:26:33.148Z,2.10
2023-03-12T05:29:34.735Z,1.67
2023-03-12T05:32:20.676Z,1.60
2023-03-12T05:35:05.912Z,1.75
2023-03-12T05:37:51.206Z,2.03
2023-03-12T05:40:36.324Z,1.60
2023-03-12T05:43:22.033Z,2.25
2023-03-12T05:46:06.865Z,2.17
2023-03-12T05:48:53.326Z,2.28
2023-03-12T05:51:38.315Z,2.20
2023-03-12T05:54:24.453Z,2.35
2023-03-12T05:57:10.217Z,2.03
2023-03-12T06:02:40.383Z,1.70
2023-03-12T06:05:26.635Z,2.00
2023-03-12T06:10:56.347Z,1.83
2023-03-12T06:13:41.944Z,2.42
2023-03-12T06:16:28.078Z,2.13
2023-03-12T06:19:15.599Z,2.35
2023-03-12T06:22:03.558Z,2.50
2023-03-12T06:24:48.580Z,2.35
2023-03-12T06:27:35.141Z,2.25
2023-03-12T06:30:20.128Z,2.53
2023-03-12T06:33:08.226Z,2.22
2023-03-12T06:35:54.795Z,2.47
2023-03-12T06:38:40.683Z,2.40
2023-03-12T06:41:25.516Z,2.60
2023-03-12T06:44:10.226Z,2.00
2023-03-12T06:46:54.963Z,2.42
2023-03-12T06:49:39.803Z,2.17
2023-03-12T06:52:24.484Z,2.13
2023-03-12T06:55:09.789Z,2.50
2023-03-12T06:57:54.624Z,2.20
2023-03-12T07:03:24.238Z,2.55
2023-03-12T07:08:58.492Z,2.47
2023-03-12T07:11:43.627Z,4.40
2023-03-12T07:17:12.846Z,3.08
2023-03-12T07:19:57.614Z,3.47
2023-03-12T07:22:42.372Z,2.72
2023-03-12T07:28:12.379Z,3.05
2023-03-12T07:31:04.216Z,2.97
2023-03-12T07:33:49.452Z,3.33
2023-03-12T07:36:34.651Z,3.45
2023-03-12T07:42:04.569Z,3.92
2023-03-12T07:44:51.148Z,3.78
2023-03-12T07:50:20.679Z,3.92
2023-03-12T07:55:50.311Z,3.92
2023-03-12T07:58:35.812Z,3.17
2023-03-12T08:01:20.786Z,3.90
2023-03-12T08:04:05.871Z,3.78
2023-03-12T08:09:35.275Z,3.83
2023-03-12T08:15:05.938Z,3.88
2023-03-12T08:17:50.859Z,4.07
2023-03-12T08:20:35.764Z,5.20
2023-03-12T08:23:21.638Z,5.63
2023-03-12T08:26:06.301Z,5.38
2023-03-12T08:28:50.801Z,4.85
2023-03-12T08:31:36.092Z,5.07
2023-03-12T08:34:20.680Z,4.72
2023-03-12T08:37:05.990Z,4.60
2023-03-12T08:39:50.652Z,5.15
2023-03-12T08:42:35.214Z,5.43
2023-03-12T08:45:20.183Z,5.20
2023-03-12T08:48:06.542Z,5.15
2023-03-12T08:50:51.155Z,4.90
2023-03-12T08:53:36.603Z,6.13
2023-03-12T08:56:21.424Z,5.30
2023-03-12T08:59:05.857Z,5.80
2023-03-12T09:01:50.890Z,6.70
2023-03-12T09:04:35.835Z,7.13
2023-03-12T09:07:21.974Z,7.07
2023-03-12T09:10:06.926Z,7.70
2023-03-12T09:12:51.614Z,7.20
2023-03-12T09:15:36.246Z,6.57
2023-03-12T09:18:21.244Z,5.30
2023-03-12T09:21:06.332Z,7.05
2023-03-12T09:23:51.085Z,6.63
2023-03-12T09:26:36.107Z,6.15
2023-03-12T09:29:21.047Z,6.60
2023-03-12T09:32:06.164Z,7.20
2023-03-12T09:34:50.923Z,8.23
2023-03-12T09:40:23.350Z,7.55
2023-03-12T09:43:27.162Z,6.88
2023-03-12T09:49:04.626Z,7.63
2023-03-12T09:51:53.796Z,7.80
2023-03-12T09:54:48.935Z,7.40
2023-03-12T10:11:54.357Z,7.95
2023-03-12T10:14:58.189Z,7.75
2023-03-12T10:17:49.655Z,7.97
2023-03-12T10:20:47.435Z,9.10
2023-03-12T10:23:44.994Z,9.23
2023-03-12T10:26:42.462Z,8.68
2023-03-12T10:29:37.070Z,7.90
2023-03-12T10:32:30.414Z,7.90
2023-03-12T10:35:24.317Z,7.13
2023-03-12T10:38:20.156Z,7.78
2023-03-12T10:41:26.164Z,7.70
2023-03-12T10:44:19.465Z,6.47
2023-03-12T10:47:22.373Z,7.35
2023-03-12T10:50:15.360Z,8.13
2023-03-12T10:53:29.385Z,7.38
2023-03-12T10:56:19.441Z,7.90
2023-03-12T10:59:20.567Z,7.03
2023-03-12T11:02:42.490Z,7.85
2023-03-12T11:05:47.914Z,8.50
2023-03-12T11:08:34.923Z,8.35
2023-03-12T11:11:34.082Z,9.23
2023-03-12T11:14:24.671Z,8.52
2023-03-12T11:19:51.300Z,9.70
2023-03-12T11:22:36.100Z,11.15
2023-03-12T11:25:27.649Z,9.93
2023-03-12T11:28:20.225Z,10.82
2023-03-12T11:31:12.816Z,9.32
2023-03-12T11:34:06.805Z,10.85
2023-03-12T11:37:10.509Z,10.48
2023-03-12T11:40:09.238Z,9.07
2023-03-12T11:43:01.635Z,10.10
2023-03-12T11:46:11.490Z,11.10
2023-03-12T11:49:14.786Z,10.70
2023-03-12T11:52:10.137Z,11.30
2023-03-12T11:55:04.181Z,9.40
2023-03-12T11:57:58.194Z,9.98
2023-03-12T12:01:12.435Z,9.68
2023-03-12T12:04:05.966Z,9.05
2023-03-12T12:06:53.586Z,8.43
2023-03-12T12:10:01.865Z,9.25
2023-03-12T12:12:52.873Z,7.93
2023-03-12T12:16:00.740Z,8.88
2023-03-12T12:18:58.304Z,9.68
2023-03-12T12:21:55.087Z,9.07
2023-03-12T12:24:58.798Z,8.50
2023-03-12T12:27:49.903Z,9.25
2023-03-12T12:30:37.520Z,9.10
2023-03-12T12:33:23.597Z,9.75
2023-03-12T12:36:10.216Z,8.88
2023-03-12T12:39:00.606Z,10.73
2023-03-12T12:41:50.983Z,11.07
2023-03-12T12:44:48.864Z,10.10
2023-03-12T12:47:45.468Z,9.00
2023-03-12T12:50:35.808Z,8.38
2023-03-12T12:53:25.776Z,8.48
2023-03-12T12:56:15.394Z,8.50
2023-03-12T12:59:31.122Z,8.30
2023-03-12T13:02:22.337Z,7.25
2023-03-12T13:05:19.879Z,7.65
2023-03-12T13:08:08.011Z,8.30
2023-03-12T13:11:02.175Z,6.72
2023-03-12T13:14:12.449Z,6.85
2023-03-12T13:17:08.709Z,6.10
2023-03-12T13:20:01.660Z,5.75
2023-03-12T13:22:58.785Z,5.75
2023-03-12T13:26:24.810Z,5.68
2023-03-12T13:29:19.108Z,5.88
2023-03-12T13:32:04.618Z,5.85
2023-03-12T13:34:49.578Z,6.25
2023-03-12T13:37:46.263Z,6.32
2023-03-12T13:40:31.396Z,6.28
2023-03-12T13:43:32.626Z,6.90
2023-03-12T13:46:28.358Z,7.40
2023-03-12T13:49:16.260Z,6.80
2023-03-12T13:52:13.696Z,7.20
2023-03-12T13:55:10.676Z,6.80
2023-03-12T13:58:08.430Z,6.97
2023-03-12T14:00:57.099Z,7.15
2023-03-12T14:03:49.308Z,7.35
2023-03-12T14:06:53.137Z,7.20
2023-03-12T14:09:52.911Z,6.72
2023-03-12T14:12:59.548Z,4.28
2023-03-12T14:15:51.217Z,4.50
2023-03-12T14:18:38.226Z,4.32
2023-03-12T14:21:28.338Z,3.33
2023-03-12T14:24:21.545Z,3.38
2023-03-12T14:27:14.207Z,3.53
2023-03-12T14:30:11.157Z,3.45
2023-03-12T14:33:00.887Z,3.42
2023-03-12T14:35:52.957Z,4.65
2023-03-12T14:38:44.749Z,5.22
2023-03-12T14:41:35.126Z,4.85
2023-03-12T14:44:25.286Z,4.38
2023-03-12T14:47:17.025Z,5.18
2023-03-12T14:50:02.847Z,5.72
2023-03-12T14:52:47.656Z,4.65
2023-03-12T14:55:32.635Z,4.65
2023-03-12T14:58:19.965Z,4.80
2023-03-12T15:01:06.898Z,4.72
2023-03-12T15:04:14.046Z,5.07
2023-03-12T15:07:03.750Z,5.82
2023-03-12T15:09:51.502Z,7.13
2023-03-12T15:12:37.683Z,6.57
2023-03-12T15:15:42.568Z,6.88
2023-03-12T15:18:29.924Z,7.40
2023-03-12T15:21:15.723Z,7.78
2023-03-12T15:24:01.292Z,9.00
2023-03-12T15:26:46.035Z,8.15
2023-03-12T15:32:19.978Z,9.02
2023-03-12T15:35:13.048Z,8.10
2023-03-12T15:37:58.344Z,8.75
2023-03-12T15:43:33.035Z,7.28
2023-03-12T15:46:18.358Z,6.78
2023-03-12T15:52:05.105Z,6.88
2023-03-12T15:55:09.746Z,7.75
2023-03-12T15:57:56.639Z,7.07
2023-03-12T16:00:43.537Z,7.00
2023-03-12T16:03:28.449Z,6.55
2023-03-12T16:06:15.925Z,6.70
2023-03-12T16:09:05.492Z,7.90
2023-03-12T16:11:51.820Z,6.43
2023-03-12T16:14:37.602Z,7.72
2023-03-12T16:17:22.982Z,6.30
2023-03-12T16:20:11.763Z,6.65
2023-03-12T16:22:56.655Z,6.53
2023-03-12T16:28:37.072Z,5.43
2023-03-12T16:34:10.254Z,5.70
2023-03-12T16:36:54.769Z,6.55
2023-03-12T16:39:40.051Z,6.65
2023-03-12T16:45:12.930Z,5.93
2023-03-12T16:48:00.512Z,7.03
2023-03-12T16:51:03.935Z,7.13
2023-03-12T16:53:58.474Z,7.90
2023-03-12T16:56:50.359Z,8.82
2023-03-12T16:59:37.478Z,7.72
2023-03-12T17:02:22.332Z,7.63
2023-03-12T17:07:53.029Z,7.13
2023-03-12T17:10:38.330Z,8.38
2023-03-12T17:16:12.061Z,9.05
2023-03-12T17:18:56.995Z,9.88
2023-03-12T17:21:43.453Z,10.02
2023-03-12T17:24:28.018Z,10.48
2023-03-12T17:30:00.429Z,8.30
2023-03-12T17:32:45.700Z,11.27
2023-03-12T17:38:15.524Z,9.35
2023-03-12T17:43:45.677Z,9.50
2023-03-12T17:49:15.707Z,8.30
2023-03-12T17:54:46.497Z,8.38
2023-03-12T17:57:31.402Z,7.93
2023-03-12T18:00:21.376Z,8.05
2023-03-12T18:03:06.493Z,8.50
2023-03-12T18:05:51.733Z,8.15
2023-03-12T18:08:36.701Z,7.82
2023-03-12T18:11:23.915Z,8.48
2023-03-12T18:14:08.471Z,8.60
2023-03-12T18:16:53.465Z,6.90
2023-03-12T18:19:38.600Z,7.03
2023-03-12T18:25:09.837Z,7.32
2023-03-12T18:27:56.657Z,6.63
2023-03-12T18:30:45.166Z,7.47
2023-03-12T18:33:30.400Z,6.88
2023-03-12T18:36:15.004Z,7.55
2023-03-12T18:39:04.138Z,7.68
2023-03-12T18:41:49.181Z,8.70
2023-03-12T18:47:18.912Z,7.35
2023-03-12T18:52:48.609Z,9.45
2023-03-12T18:55:32.910Z,6.50
2023-03-12T18:58:17.618Z,6.93
2023-03-12T19:03:47.031Z,6.25
2023-03-12T19:06:47.805Z,6.13
2023-03-12T19:09:34.605Z,5.65
2023-03-12T19:12:19.326Z,6.30
2023-03-12T19:17:49.807Z,5.68
2023-03-12T19:20:35.822Z,6.35
2023-03-12T19:23:21.040Z,6.70
2023-03-12T19:26:06.949Z,6.18
2023-03-12T19:28:51.837Z,6.60
2023-03-12T19:34:21.642Z,6.68
2023-03-12T19:37:06.504Z,6.13
2023-03-12T19:39:51.467Z,6.32
2023-03-12T19:42:36.440Z,6.05
2023-03-12T19:48:06.296Z,5.90
2023-03-12T19:50:52.967Z,6.80
2023-03-12T19:53:38.149Z,6.68
2023-03-12T19:56:22.868Z,6.50
2023-03-12T19:59:07.369Z,6.28
2023-03-12T20:04:37.504Z,5.82
2023-03-12T20:10:11.453Z,5.80
2023-03-12T20:12:56.409Z,5.65
2023-03-12T20:15:44.608Z,6.55
2023-03-12T20:18:30.169Z,4.97
2023-03-12T20:21:15.366Z,5.93
2023-03-12T20:24:01.633Z,5.43
2023-03-12T20:26:46.253Z,6.20
2023-03-12T20:29:31.200Z,6.13
2023-03-12T20:35:02.734Z,5.88
2023-03-12T20:40:32.133Z,7.38
2023-03-12T20:43:17.418Z,7.03
2023-03-12T20:46:02.288Z,6.93
2023-03-12T20:48:46.711Z,7.20
2023-03-12T20:51:31.775Z,6.75
2023-03-12T20:54:17.037Z,6.95
2023-03-12T20:59:46.201Z,6.63
2023-03-12T21:02:31.140Z,6.50
2023-03-12T21:08:00.508Z,6.72
2023-03-12T21:13:30.266Z,6.22
2023-03-12T21:16:15.525Z,5.95
2023-03-12T21:19:00.391Z,6.35
2023-03-12T21:21:45.106Z,6.68
2023-03-12T21:24:32.370Z,8.13
2023-03-12T21:27:16.909Z,7.13
2023-03-12T21:30:01.776Z,7.32
2023-03-12T21:35:31.818Z,6.00
2023-03-12T21:38:16.795Z,6.85
2023-03-12T21:41:06.429Z,7.22
2023-03-12T21:43:51.505Z,8.05
2023-03-12T21:46:36.410Z,7.70
2023-03-12T21:49:21.283Z,7.45
2023-03-12T21:52:05.920Z,7.45
2023-03-12T21:54:50.529Z,7.25
2023-03-12T22:00:20.237Z,7.28
2023-03-12T22:03:05.024Z,7.78
2023-03-12T22:05:51.357Z,8.57
2023-03-12T22:08:37.362Z,9.70
2023-03-12T22:11:22.177Z,8.02
2023-03-12T22:16:51.744Z,9.50
2023-03-12T22:22:21.369Z,8.50
2023-03-12T22:25:06.615Z,9.35
2023-03-12T22:30:35.938Z,9.15
2023-03-12T22:33:20.735Z,10.82
2023-03-12T22:36:08.484Z,11.25
2023-03-12T22:38:53.325Z,11.55
2023-03-12T22:44:22.847Z,11.43
2023-03-12T22:47:08.053Z,11.57
2023-03-12T22:49:52.656Z,13.65
2023-03-12T22:55:22.233Z,9.95
2023-03-12T22:58:07.112Z,10.70
2023-03-12T23:01:00.500Z,11.15
2023-03-12T23:03:46.478Z,13.63
2023-03-12T23:06:31.532Z,14.68
2023-03-12T23:09:16.101Z,13.95
2023-03-12T23:12:01.234Z,15.63
2023-03-12T23:14:46.022Z,15.35
2023-03-12T23:17:30.619Z,14.40
2023-03-12T23:20:15.626Z,14.93
2023-03-12T23:25:55.272Z,15.23
2023-03-12T23:28:40.412Z,14.70
2023-03-12T23:34:11.982Z,13.20
2023-03-12T23:36:56.976Z,16.40
2023-03-12T23:39:53.903Z,16.65
2023-03-12T23:42:39.127Z,16.48
2023-03-12T23:45:24.139Z,17.45
2023-03-12T23:48:09.343Z,17.83
2023-03-12T23:53:42.355Z,15.02
2023-03-12T23:56:32.387Z,16.08
2023-03-12T23:59:17.717Z,17.17
